Time;durP1;ratioP1;P1;durP2;ratioP2;P2;SDS_P1;SDS_P2;PMS_P1;PMS_P2;Temp;Humidity;BMP_temperature;BMP_pressure;BME280_temperature;BME280_humidity;BME280_pressure;Samples;Min_cycle;Max_cycle;Signal;HPM_P1;HPM_P2
2022/08/06 00:00:52;;;;;;;2.20;0.52;;;;;;;;;;5104975;28;20089;-63
2022/08/06 00:03:20;;;;;;;1.90;0.60;;;;;;;;;;5100909;28;20097;-63
2022/08/06 00:05:47;;;;;;;2.17;0.60;;;;;;;;;;5079173;28;20052;-63
2022/08/06 00:08:16;;;;;;;1.85;0.57;;;;;;;;;;5103268;28;20048;-63
2022/08/06 00:10:43;;;;;;;1.77;0.60;;;;;;;;;;5102824;28;20402;-63
2022/08/06 00:13:10;;;;;;;1.70;0.50;;;;;;;;;;5099436;28;20048;-63
2022/08/06 00:15:38;;;;;;;2.05;0.90;;;;;;;;;;5100667;28;20051;-63
2022/08/06 00:18:05;;;;;;;2.72;0.50;;;;;;;;;;5099732;28;20066;-63
2022/08/06 00:20:32;;;;;;;2.95;0.70;;;;;;;;;;5102263;28;20051;-63
2022/08/06 00:23:00;;;;;;;2.40;0.77;;;;;;;;;;5104487;28;20048;-63
2022/08/06 00:25:29;;;;;;;4.57;0.70;;;;;;;;;;5083029;28;20055;-63
2022/08/06 00:27:56;;;;;;;3.00;0.70;;;;;;;;;;5104538;28;20101;-63
2022/08/06 00:30:23;;;;;;;2.00;0.60;;;;;;;;;;5102963;28;20101;-63
2022/08/06 00:32:51;;;;;;;2.22;0.52;;;;;;;;;;5101214;28;20051;-63
2022/08/06 00:35:19;;;;;;;2.88;0.60;;;;;;;;;;5101976;28;20505;-63
2022/08/06 00:37:46;;;;;;;1.10;0.50;;;;;;;;;;5085707;28;20100;-63
2022/08/06 00:40:15;;;;;;;1.73;0.50;;;;;;;;;;5104582;28;20047;-63
2022/08/06 00:42:45;;;;;;;3.00;0.63;;;;;;;;;;5102734;28;20133;-63
2022/08/06 00:45:12;;;;;;;1.92;0.60;;;;;;;;;;5103749;28;20047;-63
2022/08/06 00:47:39;;;;;;;1.30;0.60;;;;;;;;;;5083417;28;20047;-63
2022/08/06 00:50:07;;;;;;;2.53;0.70;;;;;;;;;;5085761;28;20490;-63
2022/08/06 00:52:34;;;;;;;1.38;0.52;;;;;;;;;;5083804;28;20052;-63
2022/08/06 00:55:01;;;;;;;2.35;0.50;;;;;;;;;;5103213;28;20059;-63
2022/08/06 00:57:29;;;;;;;3.80;0.68;;;;;;;;;;5103346;28;20452;-63
2022/08/06 00:59:57;;;;;;;2.72;0.80;;;;;;;;;;5085937;28;20108;-63
2022/08/06 01:02:24;;;;;;;2.50;0.52;;;;;;;;;;5105259;28;20055;-62
2022/08/06 01:04:52;;;;;;;3.05;0.60;;;;;;;;;;5106307;28;20580;-63
2022/08/06 01:07:19;;;;;;;3.20;0.57;;;;;;;;;;5100503;28;20050;-63
2022/08/06 01:09:46;;;;;;;5.38;0.70;;;;;;;;;;5105609;27;20486;-63
2022/08/06 01:12:13;;;;;;;4.18;0.70;;;;;;;;;;5082451;28;20124;-63
2022/08/06 01:14:40;;;;;;;0.82;0.63;;;;;;;;;;5107444;28;20052;-63
2022/08/06 01:17:15;;;;;;;3.45;0.60;;;;;;;;;;5105502;28;20055;-63
2022/08/06 01:19:47;;;;;;;1.83;0.60;;;;;;;;;;5085375;28;20056;-63
2022/08/06 01:22:18;;;;;;;2.42;0.60;;;;;;;;;;5102914;28;20097;-63
2022/08/06 01:24:51;;;;;;;2.58;0.70;;;;;;;;;;5098140;28;20055;-63
2022/08/06 01:27:34;;;;;;;2.17;0.57;;;;;;;;;;5089376;28;20051;-63
2022/08/06 01:30:03;;;;;;;0.63;0.30;;;;;;;;;;5104827;28;20051;-63
2022/08/06 01:32:32;;;;;;;2.05;0.70;;;;;;;;;;5101474;28;20169;-63
2022/08/06 01:35:01;;;;;;;5.03;0.65;;;;;;;;;;5080340;28;20047;-63
2022/08/06 01:37:32;;;;;;;3.03;0.70;;;;;;;;;;5102688;28;20047;-63
2022/08/06 01:40:01;;;;;;;2.70;0.50;;;;;;;;;;5098529;28;20056;-63
2022/08/06 01:42:31;;;;;;;3.75;0.60;;;;;;;;;;5085052;28;20036;-63
2022/08/06 01:45:00;;;;;;;3.35;0.70;;;;;;;;;;5105534;28;20051;-63
2022/08/06 01:47:29;;;;;;;2.72;0.68;;;;;;;;;;5100019;28;20497;-63
2022/08/06 01:49:58;;;;;;;6.57;0.68;;;;;;;;;;5102241;28;20055;-63
2022/08/06 01:52:25;;;;;;;0.95;0.40;;;;;;;;;;5102140;28;20112;-63
2022/08/06 01:54:53;;;;;;;2.80;0.63;;;;;;;;;;5104468;28;20051;-62
2022/08/06 01:57:22;;;;;;;2.80;0.68;;;;;;;;;;5084145;28;20159;-64
2022/08/06 01:59:53;;;;;;;2.03;0.60;;;;;;;;;;5106865;28;20047;-63
2022/08/06 02:02:21;;;;;;;1.25;0.40;;;;;;;;;;5105878;28;20720;-63
2022/08/06 02:04:51;;;;;;;1.25;0.50;;;;;;;;;;5098842;28;20094;-64
2022/08/06 02:07:20;;;;;;;2.40;0.50;;;;;;;;;;5101393;28;20093;-64
2022/08/06 02:09:48;;;;;;;1.55;0.52;;;;;;;;;;5105431;28;20431;-63
2022/08/06 02:12:16;;;;;;;2.25;0.50;;;;;;;;;;5100449;28;20065;-63
2022/08/06 02:14:47;;;;;;;3.45;0.50;;;;;;;;;;5101998;28;20109;-63
2022/08/06 02:17:17;;;;;;;3.33;0.70;;;;;;;;;;5104954;28;20481;-63
2022/08/06 02:19:45;;;;;;;6.70;0.73;;;;;;;;;;5101173;28;20418;-64
2022/08/06 02:22:12;;;;;;;1.70;0.50;;;;;;;;;;5105251;28;20336;-63
2022/08/06 02:24:40;;;;;;;3.10;0.50;;;;;;;;;;5083000;28;20058;-63
2022/08/06 02:27:10;;;;;;;2.17;0.50;;;;;;;;;;5100429;28;20062;-63
2022/08/06 02:29:38;;;;;;;1.70;0.52;;;;;;;;;;5101481;28;20069;-63
2022/08/06 02:32:05;;;;;;;1.25;0.45;;;;;;;;;;5088580;28;20055;-63
2022/08/06 02:34:34;;;;;;;2.03;0.60;;;;;;;;;;5105314;28;20051;-63
2022/08/06 02:37:04;;;;;;;3.70;0.60;;;;;;;;;;5103668;28;20055;-63
2022/08/06 02:39:34;;;;;;;3.35;1.05;;;;;;;;;;5104130;28;20059;-63
2022/08/06 02:42:03;;;;;;;5.03;0.60;;;;;;;;;;5091388;28;20063;-62
2022/08/06 02:44:36;;;;;;;0.93;0.50;;;;;;;;;;5084082;28;20051;-63
2022/08/06 02:47:03;;;;;;;;;;;;;;;;;;5096609;28;20110;-63
2022/08/06 02:49:32;;;;;;;2.10;0.60;;;;;;;;;;5096564;28;20270;-63
2022/08/06 02:52:03;;;;;;;0.77;0.45;;;;;;;;;;5094487;28;20056;-63
2022/08/06 02:54:35;;;;;;;3.20;0.68;;;;;;;;;;5084001;28;20586;-63
2022/08/06 02:57:04;;;;;;;3.67;0.70;;;;;;;;;;5102353;28;20459;-63
2022/08/06 02:59:33;;;;;;;1.27;0.70;;;;;;;;;;5099441;28;20047;-63
2022/08/06 03:02:01;;;;;;;1.95;0.60;;;;;;;;;;5102038;28;20058;-63
2022/08/06 03:04:29;;;;;;;4.55;0.80;;;;;;;;;;5101722;28;20055;-63
2022/08/06 03:06:58;;;;;;;4.18;0.90;;;;;;;;;;5096928;28;20102;-62
2022/08/06 03:09:26;;;;;;;1.25;0.60;;;;;;;;;;5104423;28;20054;-63
2022/08/06 03:11:54;;;;;;;5.13;0.90;;;;;;;;;;5098311;28;20047;-63
2022/08/06 03:14:23;;;;;;;1.92;0.40;;;;;;;;;;5102409;28;20058;-63
2022/08/06 03:16:51;;;;;;;2.65;0.68;;;;;;;;;;5105834;28;20045;-63
2022/08/06 03:19:19;;;;;;;3.40;1.00;;;;;;;;;;5099567;28;20523;-63
2022/08/06 03:21:47;;;;;;;4.32;0.90;;;;;;;;;;5096913;28;20062;-63
2022/08/06 03:24:15;;;;;;;2.38;0.57;;;;;;;;;;5097582;28;20483;-62
2022/08/06 03:26:44;;;;;;;2.95;1.10;;;;;;;;;;5095176;28;20100;-63
2022/08/06 03:29:12;;;;;;;1.85;0.63;;;;;;;;;;5103517;28;20108;-63
2022/08/06 03:31:39;;;;;;;4.72;0.82;;;;;;;;;;5084396;28;20059;-63
2022/08/06 03:34:06;;;;;;;2.78;0.63;;;;;;;;;;5083599;28;20047;-63
2022/08/06 03:36:35;;;;;;;4.75;0.80;;;;;;;;;;5099230;28;20044;-63
2022/08/06 03:39:05;;;;;;;2.17;0.70;;;;;;;;;;5100986;28;20093;-63
2022/08/06 03:41:35;;;;;;;3.72;0.80;;;;;;;;;;5103074;28;20055;-64
2022/08/06 03:44:04;;;;;;;3.05;0.90;;;;;;;;;;5103397;28;20866;-63
2022/08/06 03:46:34;;;;;;;3.55;0.65;;;;;;;;;;5101591;28;20085;-63
2022/08/06 03:49:03;;;;;;;2.72;0.77;;;;;;;;;;5102848;28;20052;-63
2022/08/06 03:51:31;;;;;;;3.58;0.80;;;;;;;;;;5097857;28;20415;-63
2022/08/06 03:53:59;;;;;;;2.63;0.77;;;;;;;;;;5102603;28;20066;-63
2022/08/06 03:56:28;;;;;;;5.28;0.98;;;;;;;;;;5098483;28;20070;-63
2022/08/06 03:58:56;;;;;;;4.25;0.90;;;;;;;;;;5101912;28;20051;-63
2022/08/06 04:01:25;;;;;;;2.42;0.93;;;;;;;;;;5099285;28;20402;-63
2022/08/06 04:03:53;;;;;;;4.18;1.00;;;;;;;;;;5104172;28;20678;-63
2022/08/06 04:06:21;;;;;;;2.67;0.98;;;;;;;;;;5105007;28;20584;-63
2022/08/06 04:08:49;;;;;;;2.28;0.90;;;;;;;;;;5096677;28;20044;-64
2022/08/06 04:11:17;;;;;;;1.90;0.80;;;;;;;;;;5089400;28;20055;-63
2022/08/06 04:13:45;;;;;;;3.42;1.00;;;;;;;;;;5103650;28;20056;-63
2022/08/06 04:16:13;;;;;;;3.83;0.93;;;;;;;;;;5098673;28;20048;-63
2022/08/06 04:18:43;;;;;;;5.55;0.93;;;;;;;;;;5100615;28;20053;-63
2022/08/06 04:21:12;;;;;;;2.08;0.95;;;;;;;;;;5086982;28;20066;-63
2022/08/06 04:23:40;;;;;;;5.22;1.00;;;;;;;;;;5102831;28;20036;-62
2022/08/06 04:26:08;;;;;;;3.75;1.02;;;;;;;;;;5104360;28;20051;-63
2022/08/06 04:28:37;;;;;;;1.92;0.90;;;;;;;;;;5108144;28;20047;-63
2022/08/06 04:31:04;;;;;;;1.83;0.90;;;;;;;;;;5108858;28;20067;-63
2022/08/06 04:33:32;;;;;;;5.65;1.10;;;;;;;;;;5108279;28;20047;-63
2022/08/06 04:36:05;;;;;;;5.28;1.10;;;;;;;;;;5107645;28;20055;-63
2022/08/06 04:38:33;;;;;;;4.60;0.95;;;;;;;;;;5108246;28;20056;-63
2022/08/06 04:41:01;;;;;;;3.85;1.05;;;;;;;;;;5108491;28;20733;-64
2022/08/06 04:43:29;;;;;;;3.97;0.90;;;;;;;;;;5107922;28;20492;-63
2022/08/06 04:45:57;;;;;;;7.20;1.10;;;;;;;;;;5107529;28;20575;-63
2022/08/06 04:48:24;;;;;;;3.58;0.90;;;;;;;;;;5104710;28;20051;-63
2022/08/06 04:50:52;;;;;;;2.80;0.85;;;;;;;;;;5108825;28;20271;-63
2022/08/06 04:53:20;;;;;;;3.20;0.82;;;;;;;;;;5107700;28;20051;-63
2022/08/06 04:55:48;;;;;;;2.80;0.80;;;;;;;;;;5086066;28;20063;-63
2022/08/06 04:58:16;;;;;;;6.15;1.50;;;;;;;;;;5103304;28;20046;-63
2022/08/06 05:00:44;;;;;;;2.25;0.70;;;;;;;;;;5107489;28;20059;-63
2022/08/06 05:03:11;;;;;;;3.92;0.70;;;;;;;;;;5107490;28;20635;-63
2022/08/06 05:05:40;;;;;;;6.40;0.98;;;;;;;;;;5104477;28;20058;-63
2022/08/06 05:08:09;;;;;;;1.75;0.60;;;;;;;;;;5104860;28;20460;-64
2022/08/06 05:10:41;;;;;;;2.17;0.80;;;;;;;;;;5103380;28;21278;-63
2022/08/06 05:13:09;;;;;;;2.95;0.80;;;;;;;;;;5103688;28;20066;-63
2022/08/06 05:15:40;;;;;;;2.83;1.20;;;;;;;;;;5099178;28;20052;-63
2022/08/06 05:18:09;;;;;;;1.92;0.88;;;;;;;;;;5106510;28;20065;-63
2022/08/06 05:20:39;;;;;;;2.33;0.98;;;;;;;;;;5097803;28;20051;-63
2022/08/06 05:23:09;;;;;;;5.65;1.05;;;;;;;;;;5103814;28;20505;-63
2022/08/06 05:25:38;;;;;;;3.60;1.23;;;;;;;;;;5080862;28;20040;-63
2022/08/06 05:28:06;;;;;;;4.45;1.30;;;;;;;;;;5102069;28;20054;-63
2022/08/06 05:30:34;;;;;;;5.28;1.00;;;;;;;;;;5082580;28;20056;-63
2022/08/06 05:33:01;;;;;;;2.53;0.93;;;;;;;;;;5105103;28;20050;-63
2022/08/06 05:35:28;;;;;;;3.67;1.10;;;;;;;;;;5103325;28;20105;-63
2022/08/06 05:37:56;;;;;;;4.47;0.90;;;;;;;;;;5107786;28;20055;-62
2022/08/06 05:40:23;;;;;;;3.55;1.00;;;;;;;;;;5104145;28;20058;-63
2022/08/06 05:42:51;;;;;;;5.57;1.00;;;;;;;;;;5107743;28;20036;-63
2022/08/06 05:45:19;;;;;;;6.80;1.00;;;;;;;;;;5103656;28;20124;-64
2022/08/06 05:47:48;;;;;;;3.88;0.82;;;;;;;;;;5107141;28;20116;-62
2022/08/06 05:50:17;;;;;;;6.60;1.23;;;;;;;;;;5103189;28;20160;-63
2022/08/06 05:52:48;;;;;;;5.35;0.90;;;;;;;;;;5106971;28;20046;-63
2022/08/06 05:55:17;;;;;;;3.90;1.10;;;;;;;;;;5105611;28;20525;-63
2022/08/06 05:57:47;;;;;;;3.70;0.85;;;;;;;;;;5104562;27;20054;-63
2022/08/06 06:00:17;;;;;;;5.38;1.17;;;;;;;;;;5083248;28;20067;-63
2022/08/06 06:02:45;;;;;;;3.17;1.40;;;;;;;;;;5087092;28;20055;-63
2022/08/06 06:05:13;;;;;;;3.90;1.13;;;;;;;;;;5089169;28;20062;-63
2022/08/06 06:07:41;;;;;;;4.13;1.10;;;;;;;;;;5088033;28;20130;-63
2022/08/06 06:10:09;;;;;;;2.78;1.42;;;;;;;;;;5106016;28;20055;-63
2022/08/06 06:12:38;;;;;;;4.68;1.52;;;;;;;;;;5105683;28;20054;-63
2022/08/06 06:15:07;;;;;;;4.68;1.75;;;;;;;;;;5102246;28;20054;-63
2022/08/06 06:17:50;;;;;;;4.70;1.60;;;;;;;;;;5103593;28;20054;-64
2022/08/06 06:20:20;;;;;;;7.90;2.08;;;;;;;;;;5103134;28;20051;-64
2022/08/06 06:22:51;;;;;;;4.95;2.40;;;;;;;;;;5100656;28;20047;-63
2022/08/06 06:25:21;;;;;;;5.50;1.88;;;;;;;;;;5098351;28;20047;-63
2022/08/06 06:27:51;;;;;;;6.93;2.35;;;;;;;;;;5100524;28;20055;-63
2022/08/06 06:30:22;;;;;;;2.63;1.48;;;;;;;;;;5094336;28;20055;-63
2022/08/06 06:32:54;;;;;;;4.28;2.13;;;;;;;;;;5101934;28;20130;-63
2022/08/06 06:35:25;;;;;;;6.07;1.60;;;;;;;;;;5082803;28;20047;-63
2022/08/06 06:37:55;;;;;;;5.57;1.50;;;;;;;;;;5102597;28;20055;-63
2022/08/06 06:40:31;;;;;;;4.53;1.20;;;;;;;;;;5099640;28;20052;-63
2022/08/06 06:43:02;;;;;;;9.00;1.42;;;;;;;;;;5098542;28;20490;-63
2022/08/06 06:45:34;;;;;;;6.15;1.30;;;;;;;;;;5101176;28;20040;-64
2022/08/06 06:48:04;;;;;;;8.68;1.40;;;;;;;;;;5098988;28;20129;-63
2022/08/06 06:50:34;;;;;;;4.38;1.55;;;;;;;;;;5102788;28;20092;-63
2022/08/06 06:53:01;;;;;;;3.95;1.75;;;;;;;;;;5099803;28;20055;-64
2022/08/06 06:55:32;;;;;;;5.43;1.30;;;;;;;;;;5103963;28;20046;-63
2022/08/06 06:58:03;;;;;;;6.53;1.50;;;;;;;;;;5099414;28;20055;-63
2022/08/06 07:00:31;;;;;;;3.92;1.50;;;;;;;;;;5095898;28;20735;-64
2022/08/06 07:03:01;;;;;;;3.40;1.23;;;;;;;;;;5100074;28;20048;-64
2022/08/06 07:05:30;;;;;;;4.05;1.13;;;;;;;;;;5105047;28;20043;-64
2022/08/06 07:07:58;;;;;;;3.33;1.25;;;;;;;;;;5084806;28;20054;-63
2022/08/06 07:10:26;;;;;;;3.50;1.20;;;;;;;;;;5102244;28;20733;-64
2022/08/06 07:12:55;;;;;;;4.03;0.98;;;;;;;;;;5104983;28;20047;-64
2022/08/06 07:15:23;;;;;;;4.72;1.55;;;;;;;;;;5102688;28;20075;-64
2022/08/06 07:17:50;;;;;;;3.08;1.20;;;;;;;;;;5099100;28;20048;-63
2022/08/06 07:20:20;;;;;;;4.60;1.60;;;;;;;;;;5095756;28;20113;-64
2022/08/06 07:22:49;;;;;;;5.05;1.30;;;;;;;;;;5094346;28;20146;-64
2022/08/06 07:25:17;;;;;;;3.63;1.20;;;;;;;;;;5080163;28;20051;-64
2022/08/06 07:27:47;;;;;;;4.57;1.10;;;;;;;;;;5102325;28;20853;-64
2022/08/06 07:30:15;;;;;;;5.10;1.30;;;;;;;;;;5101353;28;20064;-64
2022/08/06 07:32:43;;;;;;;5.07;1.20;;;;;;;;;;5097063;28;20513;-64
2022/08/06 07:35:11;;;;;;;5.00;1.25;;;;;;;;;;5099981;28;20048;-64
2022/08/06 07:37:40;;;;;;;4.13;1.30;;;;;;;;;;5101707;28;20096;-64
2022/08/06 07:40:12;;;;;;;6.47;1.30;;;;;;;;;;5101378;28;20062;-64
2022/08/06 07:42:39;;;;;;;5.03;1.35;;;;;;;;;;5083274;28;20055;-63
2022/08/06 07:45:08;;;;;;;7.40;1.67;;;;;;;;;;5083337;28;20047;-64
2022/08/06 07:47:36;;;;;;;3.85;1.50;;;;;;;;;;5102778;28;20380;-64
2022/08/06 07:50:04;;;;;;;3.78;1.40;;;;;;;;;;5102399;28;20100;-64
2022/08/06 07:52:32;;;;;;;4.10;1.35;;;;;;;;;;5102476;28;20043;-64
2022/08/06 07:54:59;;;;;;;4.28;1.40;;;;;;;;;;5100665;28;20055;-64
2022/08/06 07:57:28;;;;;;;6.53;1.60;;;;;;;;;;5103541;28;20055;-65
2022/08/06 07:59:56;;;;;;;5.60;1.70;;;;;;;;;;5096336;28;20097;-64
2022/08/06 08:02:25;;;;;;;4.05;1.35;;;;;;;;;;5088220;28;20085;-64
2022/08/06 08:07:37;;;;;;;5.03;1.50;;;;;;;;;;5101903;28;20596;-64
2022/08/06 08:10:05;;;;;;;4.43;1.50;;;;;;;;;;5103647;28;20048;-64
2022/08/06 08:12:34;;;;;;;5.07;1.20;;;;;;;;;;5105734;28;20058;-63
2022/08/06 08:15:02;;;;;;;3.53;1.00;;;;;;;;;;5108218;28;20048;-63
2022/08/06 08:17:29;;;;;;;5.47;1.60;;;;;;;;;;5104994;28;20055;-64
2022/08/06 08:19:56;;;;;;;7.32;1.27;;;;;;;;;;5084808;28;20055;-64
2022/08/06 08:22:23;;;;;;;4.22;1.17;;;;;;;;;;5086804;28;20089;-64
2022/08/06 08:24:50;;;;;;;3.25;1.40;;;;;;;;;;5108058;28;20039;-63
2022/08/06 08:27:18;;;;;;;3.25;1.25;;;;;;;;;;5102712;28;20058;-64
2022/08/06 08:29:46;;;;;;;3.30;1.20;;;;;;;;;;5088117;28;20047;-63
2022/08/06 08:32:14;;;;;;;2.40;1.30;;;;;;;;;;5103943;28;20047;-63
2022/08/06 08:34:41;;;;;;;2.47;1.42;;;;;;;;;;5105903;28;20047;-63
2022/08/06 08:37:08;;;;;;;4.78;1.85;;;;;;;;;;5089606;28;20073;-63
2022/08/06 08:39:35;;;;;;;4.03;1.50;;;;;;;;;;5108842;28;20518;-64
2022/08/06 08:42:06;;;;;;;4.55;1.40;;;;;;;;;;5103149;28;20050;-64
2022/08/06 08:44:34;;;;;;;4.45;1.45;;;;;;;;;;5108508;28;20047;-64
2022/08/06 08:47:03;;;;;;;3.42;1.48;;;;;;;;;;5100491;28;20051;-64
2022/08/06 08:49:36;;;;;;;4.18;1.58;;;;;;;;;;5084636;28;20055;-63
2022/08/06 08:52:04;;;;;;;3.15;1.60;;;;;;;;;;5108751;28;20052;-63
2022/08/06 08:54:35;;;;;;;5.10;1.77;;;;;;;;;;5106474;28;20075;-64
2022/08/06 08:57:03;;;;;;;4.10;1.70;;;;;;;;;;5102476;28;20061;-64
2022/08/06 08:59:31;;;;;;;7.65;1.83;;;;;;;;;;5098794;28;20414;-64
2022/08/06 09:01:59;;;;;;;4.57;1.83;;;;;;;;;;5101762;28;20082;-64
2022/08/06 09:04:27;;;;;;;5.00;1.90;;;;;;;;;;5106280;28;20418;-64
2022/08/06 09:06:55;;;;;;;4.90;1.90;;;;;;;;;;5104571;28;20056;-64
2022/08/06 09:09:22;;;;;;;3.05;1.80;;;;;;;;;;5106931;28;20506;-65
2022/08/06 09:11:50;;;;;;;8.15;1.80;;;;;;;;;;5105632;28;20097;-64
2022/08/06 09:14:17;;;;;;;4.05;1.85;;;;;;;;;;5100218;28;20112;-64
2022/08/06 09:16:44;;;;;;;3.72;1.60;;;;;;;;;;5097258;28;20051;-64
2022/08/06 09:19:12;;;;;;;8.40;2.28;;;;;;;;;;5086195;28;20785;-64
2022/08/06 09:21:40;;;;;;;9.13;2.13;;;;;;;;;;5100752;28;20118;-65
2022/08/06 09:24:08;;;;;;;7.50;1.98;;;;;;;;;;5105540;28;20051;-63
2022/08/06 09:26:35;;;;;;;9.82;2.00;;;;;;;;;;5105543;28;20187;-64
2022/08/06 09:29:02;;;;;;;3.65;1.77;;;;;;;;;;5106770;28;20698;-63
2022/08/06 09:31:29;;;;;;;5.00;2.08;;;;;;;;;;5100907;28;20043;-64
2022/08/06 09:33:58;;;;;;;7.45;1.80;;;;;;;;;;5104092;28;20048;-64
2022/08/06 09:36:25;;;;;;;3.25;1.83;;;;;;;;;;5105324;28;20467;-64
2022/08/06 09:38:55;;;;;;;3.45;1.60;;;;;;;;;;5106673;28;20055;-64
2022/08/06 09:41:23;;;;;;;5.80;1.90;;;;;;;;;;5099234;28;20426;-64
2022/08/06 09:43:51;;;;;;;4.18;1.48;;;;;;;;;;5105156;28;20589;-64
2022/08/06 09:46:19;;;;;;;4.60;2.13;;;;;;;;;;5103706;28;20040;-64
2022/08/06 09:48:59;;;;;;;4.95;1.90;;;;;;;;;;5102028;28;20040;-64
2022/08/06 09:51:26;;;;;;;4.78;2.47;;;;;;;;;;5105271;28;20454;-64
2022/08/06 09:53:55;;;;;;;3.40;2.00;;;;;;;;;;5102760;28;20048;-64
2022/08/06 09:56:22;;;;;;;3.80;2.00;;;;;;;;;;5100072;28;20039;-64
2022/08/06 09:58:50;;;;;;;3.47;1.98;;;;;;;;;;5104583;28;20051;-64
2022/08/06 10:01:18;;;;;;;4.07;1.92;;;;;;;;;;5102127;28;20058;-64
2022/08/06 10:03:46;;;;;;;2.25;1.70;;;;;;;;;;5106468;28;20056;-64
2022/08/06 10:06:14;;;;;;;5.57;2.00;;;;;;;;;;5103932;28;20054;-64
2022/08/06 10:08:41;;;;;;;4.78;1.70;;;;;;;;;;5105762;28;20082;-64
2022/08/06 10:11:10;;;;;;;4.55;1.88;;;;;;;;;;5106282;27;20048;-64
2022/08/06 10:13:38;;;;;;;4.95;1.77;;;;;;;;;;5102669;28;20047;-64
2022/08/06 10:16:16;;;;;;;4.72;1.55;;;;;;;;;;5106345;28;20055;-64
2022/08/06 10:18:44;;;;;;;3.65;1.10;;;;;;;;;;5082354;28;20062;-64
2022/08/06 10:21:12;;;;;;;3.05;1.52;;;;;;;;;;5101894;28;20501;-64
2022/08/06 10:23:40;;;;;;;5.20;1.08;;;;;;;;;;5103094;28;20055;-64
2022/08/06 10:26:10;;;;;;;2.22;1.17;;;;;;;;;;5102817;28;20046;-64
2022/08/06 10:28:38;;;;;;;2.53;1.33;;;;;;;;;;5104207;28;20054;-63
2022/08/06 10:31:06;;;;;;;3.42;1.38;;;;;;;;;;5105363;28;20055;-64
2022/08/06 10:33:34;;;;;;;2.75;1.23;;;;;;;;;;5105812;28;20058;-64
2022/08/06 10:36:05;;;;;;;3.08;1.17;;;;;;;;;;5100887;28;20127;-64
2022/08/06 10:38:35;;;;;;;2.40;1.13;;;;;;;;;;5105400;28;20469;-64
2022/08/06 10:41:04;;;;;;;2.15;1.30;;;;;;;;;;5101546;28;20047;-64
2022/08/06 10:43:33;;;;;;;3.90;1.30;;;;;;;;;;5101069;28;20085;-64
2022/08/06 10:46:01;;;;;;;4.25;1.70;;;;;;;;;;5087982;28;20050;-64
2022/08/06 10:48:29;;;;;;;1.90;1.60;;;;;;;;;;5105258;28;20371;-64
2022/08/06 10:50:56;;;;;;;2.17;1.30;;;;;;;;;;5098395;28;20051;-64
2022/08/06 10:53:24;;;;;;;2.42;1.50;;;;;;;;;;5099467;28;20047;-64
2022/08/06 10:55:51;;;;;;;2.70;1.60;;;;;;;;;;5105907;28;20047;-64
2022/08/06 10:58:19;;;;;;;4.10;1.67;;;;;;;;;;5104010;28;20055;-64
2022/08/06 11:00:48;;;;;;;3.50;1.65;;;;;;;;;;5104823;28;20543;-64
2022/08/06 11:03:18;;;;;;;4.22;1.73;;;;;;;;;;5100158;28;20055;-64
2022/08/06 11:05:50;;;;;;;4.25;1.65;;;;;;;;;;5100419;28;20059;-64
2022/08/06 11:08:24;;;;;;;3.42;1.90;;;;;;;;;;5099179;28;20054;-64
2022/08/06 11:11:08;;;;;;;6.50;1.95;;;;;;;;;;5102594;28;20504;-64
2022/08/06 11:13:39;;;;;;;3.03;2.20;;;;;;;;;;5085873;28;20063;-63
2022/08/06 11:16:08;;;;;;;3.70;1.55;;;;;;;;;;5095234;28;20055;-64
2022/08/06 11:18:35;;;;;;;4.70;2.13;;;;;;;;;;5103429;28;20040;-64
2022/08/06 11:21:02;;;;;;;3.50;1.50;;;;;;;;;;5102222;28;20051;-64
2022/08/06 11:23:32;;;;;;;2.42;1.50;;;;;;;;;;5102853;28;20054;-64
2022/08/06 11:26:00;;;;;;;3.95;1.80;;;;;;;;;;5099872;28;20083;-64
2022/08/06 11:28:58;;;;;;;3.00;1.63;;;;;;;;;;5096977;28;20044;-64
2022/08/06 11:31:37;;;;;;;3.50;2.03;;;;;;;;;;5085558;28;20154;-64
2022/08/06 11:34:05;;;;;;;5.97;1.80;;;;;;;;;;5077054;28;20052;-64
2022/08/06 11:36:45;;;;;;;5.13;1.85;;;;;;;;;;5094964;28;20040;-64
2022/08/06 11:39:12;;;;;;;3.00;1.70;;;;;;;;;;5093615;28;20511;-65
2022/08/06 11:41:55;;;;;;;3.08;1.60;;;;;;;;;;5101836;28;20756;-64
2022/08/06 11:44:24;;;;;;;2.75;1.80;;;;;;;;;;5103331;28;20044;-64
2022/08/06 11:47:07;;;;;;;2.63;1.60;;;;;;;;;;5105231;28;20047;-64
2022/08/06 11:49:34;;;;;;;;;;;;;;;;;;5101441;28;20122;-65
2022/08/06 11:52:01;;;;;;;2.70;1.80;;;;;;;;;;5100465;28;20438;-64
2022/08/06 11:54:30;;;;;;;3.72;1.80;;;;;;;;;;5103985;28;20093;-64
2022/08/06 11:57:16;;;;;;;3.40;1.60;;;;;;;;;;5098748;28;20124;-64
2022/08/06 11:59:47;;;;;;;3.53;1.50;;;;;;;;;;5079094;28;20048;-64
2022/08/06 12:02:17;;;;;;;3.92;1.80;;;;;;;;;;5102480;28;20079;-64
2022/08/06 12:04:46;;;;;;;3.05;1.67;;;;;;;;;;5103569;28;20043;-65
2022/08/06 12:07:18;;;;;;;3.20;1.40;;;;;;;;;;5101079;28;20826;-64
2022/08/06 12:09:45;;;;;;;2.50;1.55;;;;;;;;;;5100962;28;20124;-65
2022/08/06 12:12:31;;;;;;;3.38;1.67;;;;;;;;;;5102723;28;20070;-65
2022/08/06 12:14:59;;;;;;;3.58;1.70;;;;;;;;;;5097814;28;20132;-65
2022/08/06 12:17:30;;;;;;;3.65;1.50;;;;;;;;;;5103767;28;20821;-64
2022/08/06 12:20:00;;;;;;;3.60;1.58;;;;;;;;;;5097910;28;20528;-65
2022/08/06 12:22:28;;;;;;;4.63;2.20;;;;;;;;;;5082044;28;20154;-64
2022/08/06 12:24:58;;;;;;;3.53;1.67;;;;;;;;;;5103703;28;20387;-65
2022/08/06 12:27:31;;;;;;;2.45;1.58;;;;;;;;;;5103979;28;20054;-65
2022/08/06 12:29:59;;;;;;;3.72;1.40;;;;;;;;;;5103019;28;20048;-65
2022/08/06 12:32:27;;;;;;;4.22;1.70;;;;;;;;;;5103764;28;20104;-64
2022/08/06 12:34:56;;;;;;;4.45;1.88;;;;;;;;;;5102033;28;20666;-65
2022/08/06 12:37:33;;;;;;;3.47;1.50;;;;;;;;;;5102370;28;20043;-65
2022/08/06 12:42:46;;;;;;;2.80;1.38;;;;;;;;;;5102092;28;20049;-65
2022/08/06 12:45:13;;;;;;;2.05;1.48;;;;;;;;;;5101584;28;20055;-65
2022/08/06 12:47:41;;;;;;;2.35;1.52;;;;;;;;;;5103603;28;20069;-65
2022/08/06 12:50:19;;;;;;;4.43;1.60;;;;;;;;;;5103905;28;20085;-65
2022/08/06 12:53:02;;;;;;;6.00;1.67;;;;;;;;;;5106680;28;20461;-65
2022/08/06 12:55:29;;;;;;;10.25;2.00;;;;;;;;;;5102782;28;20109;-65
2022/08/06 12:57:57;;;;;;;4.43;1.80;;;;;;;;;;5104500;28;20054;-65
2022/08/06 13:00:24;;;;;;;3.40;1.67;;;;;;;;;;5108386;28;20055;-65
2022/08/06 13:02:52;;;;;;;2.67;1.60;;;;;;;;;;5105687;28;20058;-65
2022/08/06 13:05:22;;;;;;;4.57;1.60;;;;;;;;;;5105503;28;20051;-65
2022/08/06 13:07:49;;;;;;;3.33;1.67;;;;;;;;;;5107416;28;20109;-65
2022/08/06 13:10:16;;;;;;;3.55;1.55;;;;;;;;;;5109590;27;20115;-65
2022/08/06 13:12:44;;;;;;;4.18;1.77;;;;;;;;;;5098919;28;20540;-65
2022/08/06 13:15:15;;;;;;;2.42;1.92;;;;;;;;;;5103144;28;20055;-65
2022/08/06 13:17:42;;;;;;;2.30;1.73;;;;;;;;;;5103359;28;20043;-65
2022/08/06 13:20:10;;;;;;;1.90;1.40;;;;;;;;;;5101709;28;20083;-65
2022/08/06 13:22:51;;;;;;;3.55;2.25;;;;;;;;;;5103442;28;20048;-65
2022/08/06 13:25:19;;;;;;;2.00;1.73;;;;;;;;;;5088586;28;20056;-65
2022/08/06 13:27:47;;;;;;;2.08;1.65;;;;;;;;;;5104532;28;20048;-66
2022/08/06 13:30:15;;;;;;;3.78;1.60;;;;;;;;;;5106537;28;20058;-65
2022/08/06 13:32:43;;;;;;;2.30;1.88;;;;;;;;;;5104260;28;20043;-65
2022/08/06 13:35:11;;;;;;;2.85;1.80;;;;;;;;;;5088813;28;20059;-65
2022/08/06 13:37:47;;;;;;;4.53;1.70;;;;;;;;;;5101591;28;20047;-65
2022/08/06 13:40:16;;;;;;;2.45;1.98;;;;;;;;;;5104936;28;20060;-65
2022/08/06 13:42:50;;;;;;;4.40;1.90;;;;;;;;;;5100621;28;20039;-65
2022/08/06 13:45:21;;;;;;;1.92;1.58;;;;;;;;;;5103979;28;20119;-65
2022/08/06 13:47:49;;;;;;;3.03;2.00;;;;;;;;;;5097278;28;20127;-65
2022/08/06 13:50:18;;;;;;;1.75;1.60;;;;;;;;;;5101496;28;20078;-65
2022/08/06 13:52:45;;;;;;;1.77;1.50;;;;;;;;;;5082426;28;20051;-65
2022/08/06 13:55:12;;;;;;;2.75;1.70;;;;;;;;;;5085610;28;20052;-65
2022/08/06 13:57:41;;;;;;;3.85;1.70;;;;;;;;;;5098859;28;20160;-65
2022/08/06 14:00:09;;;;;;;3.25;1.90;;;;;;;;;;5098988;28;20129;-65
2022/08/06 14:02:36;;;;;;;4.35;1.88;;;;;;;;;;5104563;28;20055;-65
2022/08/06 14:05:04;;;;;;;2.10;1.60;;;;;;;;;;5099358;28;20062;-73
2022/08/06 14:07:31;;;;;;;3.30;1.75;;;;;;;;;;5081824;28;20059;-64
2022/08/06 14:09:58;;;;;;;4.35;1.80;;;;;;;;;;5085992;27;20055;-65
2022/08/06 14:12:25;;;;;;;3.67;1.80;;;;;;;;;;5104035;28;20047;-63
2022/08/06 14:14:54;;;;;;;3.15;1.65;;;;;;;;;;5102885;28;20075;-65
2022/08/06 14:17:21;;;;;;;2.63;1.73;;;;;;;;;;5105664;28;20039;-64
2022/08/06 14:19:49;;;;;;;3.33;2.00;;;;;;;;;;5104505;28;20052;-65
2022/08/06 14:22:16;;;;;;;2.88;2.00;;;;;;;;;;5104257;28;20047;-64
2022/08/06 14:24:43;;;;;;;2.45;1.80;;;;;;;;;;5099829;28;20051;-65
2022/08/06 14:27:11;;;;;;;2.03;1.83;;;;;;;;;;5104141;28;20048;-65
2022/08/06 14:29:38;;;;;;;3.55;1.92;;;;;;;;;;5086505;28;20062;-65
2022/08/06 14:32:07;;;;;;;4.95;2.10;;;;;;;;;;5085641;28;20048;-64
2022/08/06 14:34:35;;;;;;;3.22;2.38;;;;;;;;;;5096673;28;20133;-65
2022/08/06 14:37:02;;;;;;;4.07;2.17;;;;;;;;;;5097428;28;20164;-65
2022/08/06 14:39:30;;;;;;;3.55;2.10;;;;;;;;;;5093754;28;20063;-65
2022/08/06 14:44:59;;;;;;;4.72;2.08;;;;;;;;;;5101394;28;20104;-65
2022/08/06 14:47:28;;;;;;;2.30;1.90;;;;;;;;;;5099112;28;20044;-65
2022/08/06 14:49:55;;;;;;;3.40;2.10;;;;;;;;;;5084322;28;20484;-65
2022/08/06 14:52:22;;;;;;;3.83;1.98;;;;;;;;;;5096343;28;20052;-65
2022/08/06 14:54:50;;;;;;;2.58;1.90;;;;;;;;;;5083366;28;20052;-65
2022/08/06 14:57:17;;;;;;;3.05;2.10;;;;;;;;;;5100685;28;20603;-65
2022/08/06 14:59:45;;;;;;;4.53;2.20;;;;;;;;;;5097615;28;20052;-65
2022/08/06 15:02:12;;;;;;;2.28;2.00;;;;;;;;;;5104608;28;20047;-65